sensor_id;sensor_type;location;lat;lon;timestamp;temperature;humidity
44166;DHT22;30476;53.468;9.826;2022-12-08T00:01:11;3.60;99.90
44166;DHT22;30476;53.468;9.826;2022-12-08T00:03:38;3.60;99.90
44166;DHT22;30476;53.468;9.826;2022-12-08T00:06:05;3.60;99.90
44166;DHT22;30476;53.468;9.826;2022-12-08T00:08:49;3.60;99.90
44166;DHT22;30476;53.468;9.826;2022-12-08T00:11:34;3.60;99.90
44166;DHT22;30476;53.468;9.826;2022-12-08T00:14:00;3.60;99.90
44166;DHT22;30476;53.468;9.826;2022-12-08T00:16:26;3.60;99.90
44166;DHT22;30476;53.468;9.826;2022-12-08T00:18:52;3.70;99.90
44166;DHT22;30476;53.468;9.826;2022-12-08T00:21:18;3.70;99.90
44166;DHT22;30476;53.468;9.826;2022-12-08T00:23:43;3.70;99.90
44166;DHT22;30476;53.468;9.826;2022-12-08T00:26:09;3.70;99.90
44166;DHT22;30476;53.468;9.826;2022-12-08T00:28:35;3.70;99.90
44166;DHT22;30476;53.468;9.826;2022-12-08T00:31:07;3.80;99.90
44166;DHT22;30476;53.468;9.826;2022-12-08T00:33:33;3.80;99.90
44166;DHT22;30476;53.468;9.826;2022-12-08T00:36:07;3.80;99.90
44166;DHT22;30476;53.468;9.826;2022-12-08T00:38:33;3.80;99.90
44166;DHT22;30476;53.468;9.826;2022-12-08T00:40:59;3.90;99.90
44166;DHT22;30476;53.468;9.826;2022-12-08T00:43:25;3.90;99.90
44166;DHT22;30476;53.468;9.826;2022-12-08T00:45:51;3.90;99.90
44166;DHT22;30476;53.468;9.826;2022-12-08T00:48:17;4.00;99.90
44166;DHT22;30476;53.468;9.826;2022-12-08T00:50:42;4.00;99.90
44166;DHT22;30476;53.468;9.826;2022-12-08T00:53:08;4.00;99.90
44166;DHT22;30476;53.468;9.826;2022-12-08T00:55:34;4.00;99.90
44166;DHT22;30476;53.468;9.826;2022-12-08T00:58:00;4.00;99.90
44166;DHT22;30476;53.468;9.826;2022-12-08T01:00:26;4.10;99.90
44166;DHT22;30476;53.468;9.826;2022-12-08T01:02:51;4.10;99.90
44166;DHT22;30476;53.468;9.826;2022-12-08T01:05:17;4.10;99.90
44166;DHT22;30476;53.468;9.826;2022-12-08T01:07:43;4.10;99.90
44166;DHT22;30476;53.468;9.826;2022-12-08T01:10:09;4.20;99.90
44166;DHT22;30476;53.468;9.826;2022-12-08T01:12:35;4.20;99.90
44166;DHT22;30476;53.468;9.826;2022-12-08T01:15:01;4.20;99.90
44166;DHT22;30476;53.468;9.826;2022-12-08T01:17:26;4.10;99.90
44166;DHT22;30476;53.468;9.826;2022-12-08T01:19:52;4.10;99.90
44166;DHT22;30476;53.468;9.826;2022-12-08T01:22:18;4.20;99.90
44166;DHT22;30476;53.468;9.826;2022-12-08T01:24:44;4.20;99.90
44166;DHT22;30476;53.468;9.826;2022-12-08T01:27:10;4.20;99.90
44166;DHT22;30476;53.468;9.826;2022-12-08T01:29:36;4.20;99.90
44166;DHT22;30476;53.468;9.826;2022-12-08T01:32:01;4.20;99.90
44166;DHT22;30476;53.468;9.826;2022-12-08T01:34:27;4.20;99.90
44166;DHT22;30476;53.468;9.826;2022-12-08T01:36:53;4.20;99.90
44166;DHT22;30476;53.468;9.826;2022-12-08T01:39:19;4.20;99.90
44166;DHT22;30476;53.468;9.826;2022-12-08T01:41:46;4.20;99.90
44166;DHT22;30476;53.468;9.826;2022-12-08T01:46:43;4.20;99.90
44166;DHT22;30476;53.468;9.826;2022-12-08T01:49:26;4.20;99.90
44166;DHT22;30476;53.468;9.826;2022-12-08T01:54:28;4.20;99.90
44166;DHT22;30476;53.468;9.826;2022-12-08T01:57:01;4.20;99.90
44166;DHT22;30476;53.468;9.826;2022-12-08T01:59:29;4.10;99.90
44166;DHT22;30476;53.468;9.826;2022-12-08T02:01:57;4.20;99.90
44166;DHT22;30476;53.468;9.826;2022-12-08T02:04:23;4.10;99.90
44166;DHT22;30476;53.468;9.826;2022-12-08T02:06:50;4.10;99.90
44166;DHT22;30476;53.468;9.826;2022-12-08T02:09:18;4.10;99.90
44166;DHT22;30476;53.468;9.826;2022-12-08T02:11:44;4.10;99.90
44166;DHT22;30476;53.468;9.826;2022-12-08T02:14:11;4.10;99.90
44166;DHT22;30476;53.468;9.826;2022-12-08T02:16:59;4.10;99.90
44166;DHT22;30476;53.468;9.826;2022-12-08T02:27:27;4.10;99.90
44166;DHT22;30476;53.468;9.826;2022-12-08T02:30:09;4.10;99.90
44166;DHT22;30476;53.468;9.826;2022-12-08T02:37:42;4.10;99.90
44166;DHT22;30476;53.468;9.826;2022-12-08T02:42:47;4.10;99.90
44166;DHT22;30476;53.468;9.826;2022-12-08T02:45:21;4.20;99.90
44166;DHT22;30476;53.468;9.826;2022-12-08T02:47:50;4.10;99.90
44166;DHT22;30476;53.468;9.826;2022-12-08T02:50:17;4.10;99.90
44166;DHT22;30476;53.468;9.826;2022-12-08T02:52:45;4.20;99.90
44166;DHT22;30476;53.468;9.826;2022-12-08T02:55:32;4.10;99.90
44166;DHT22;30476;53.468;9.826;2022-12-08T03:04:45;4.10;99.90
44166;DHT22;30476;53.468;9.826;2022-12-08T03:09:59;4.10;99.90
44166;DHT22;30476;53.468;9.826;2022-12-08T03:12:49;4.10;99.90
44166;DHT22;30476;53.468;9.826;2022-12-08T03:15:18;4.00;99.90
44166;DHT22;30476;53.468;9.826;2022-12-08T03:17:50;4.10;99.90
44166;DHT22;30476;53.468;9.826;2022-12-08T03:20:23;4.10;99.90
44166;DHT22;30476;53.468;9.826;2022-12-08T03:22:51;4.10;99.90
44166;DHT22;30476;53.468;9.826;2022-12-08T03:25:21;4.10;99.90
44166;DHT22;30476;53.468;9.826;2022-12-08T03:27:48;4.10;99.90
44166;DHT22;30476;53.468;9.826;2022-12-08T03:30:15;4.10;99.90
44166;DHT22;30476;53.468;9.826;2022-12-08T03:35:30;4.10;99.90
44166;DHT22;30476;53.468;9.826;2022-12-08T03:38:06;4.10;99.90
44166;DHT22;30476;53.468;9.826;2022-12-08T03:40:32;4.20;99.90
44166;DHT22;30476;53.468;9.826;2022-12-08T03:42:58;4.20;99.90
44166;DHT22;30476;53.468;9.826;2022-12-08T03:45:25;4.10;99.90
44166;DHT22;30476;53.468;9.826;2022-12-08T03:47:51;4.10;99.90
44166;DHT22;30476;53.468;9.826;2022-12-08T03:50:16;4.10;99.90
44166;DHT22;30476;53.468;9.826;2022-12-08T03:52:42;4.10;99.90
44166;DHT22;30476;53.468;9.826;2022-12-08T03:55:08;4.10;99.90
44166;DHT22;30476;53.468;9.826;2022-12-08T03:57:34;4.10;99.90
44166;DHT22;30476;53.468;9.826;2022-12-08T04:00:01;4.10;99.90
44166;DHT22;30476;53.468;9.826;2022-12-08T04:02:26;4.10;99.90
44166;DHT22;30476;53.468;9.826;2022-12-08T04:04:52;4.10;99.90
44166;DHT22;30476;53.468;9.826;2022-12-08T04:07:18;4.10;99.90
44166;DHT22;30476;53.468;9.826;2022-12-08T04:09:44;4.10;99.90
44166;DHT22;30476;53.468;9.826;2022-12-08T04:12:10;4.10;99.90
44166;DHT22;30476;53.468;9.826;2022-12-08T04:14:35;4.20;99.90
44166;DHT22;30476;53.468;9.826;2022-12-08T04:17:01;4.10;99.90
44166;DHT22;30476;53.468;9.826;2022-12-08T04:19:27;4.20;99.90
44166;DHT22;30476;53.468;9.826;2022-12-08T04:21:53;4.10;99.90
44166;DHT22;30476;53.468;9.826;2022-12-08T04:24:19;4.10;99.90
44166;DHT22;30476;53.468;9.826;2022-12-08T04:26:44;4.10;99.90
44166;DHT22;30476;53.468;9.826;2022-12-08T04:29:10;4.10;99.90
44166;DHT22;30476;53.468;9.826;2022-12-08T04:31:36;4.10;99.90
44166;DHT22;30476;53.468;9.826;2022-12-08T04:34:02;4.10;99.90
44166;DHT22;30476;53.468;9.826;2022-12-08T04:36:28;4.10;99.90
44166;DHT22;30476;53.468;9.826;2022-12-08T04:38:54;4.10;99.90
44166;DHT22;30476;53.468;9.826;2022-12-08T04:41:20;4.10;99.90
44166;DHT22;30476;53.468;9.826;2022-12-08T04:43:46;4.10;99.90
44166;DHT22;30476;53.468;9.826;2022-12-08T04:46:12;4.10;99.90
44166;DHT22;30476;53.468;9.826;2022-12-08T04:48:38;4.10;99.90
44166;DHT22;30476;53.468;9.826;2022-12-08T04:51:05;4.00;99.90
44166;DHT22;30476;53.468;9.826;2022-12-08T04:53:31;4.00;99.90
44166;DHT22;30476;53.468;9.826;2022-12-08T04:55:57;4.00;99.90
44166;DHT22;30476;53.468;9.826;2022-12-08T04:58:23;4.00;99.90
44166;DHT22;30476;53.468;9.826;2022-12-08T05:00:49;4.00;99.90
44166;DHT22;30476;53.468;9.826;2022-12-08T05:03:15;4.00;99.90
44166;DHT22;30476;53.468;9.826;2022-12-08T05:05:41;3.90;99.90
44166;DHT22;30476;53.468;9.826;2022-12-08T05:08:09;4.00;99.90
44166;DHT22;30476;53.468;9.826;2022-12-08T05:10:35;3.90;99.90
44166;DHT22;30476;53.468;9.826;2022-12-08T05:13:01;3.90;99.90
44166;DHT22;30476;53.468;9.826;2022-12-08T05:15:27;3.90;99.90
44166;DHT22;30476;53.468;9.826;2022-12-08T05:17:53;3.90;99.90
44166;DHT22;30476;53.468;9.826;2022-12-08T05:20:19;3.80;99.90
44166;DHT22;30476;53.468;9.826;2022-12-08T05:22:44;3.80;99.90
44166;DHT22;30476;53.468;9.826;2022-12-08T05:25:10;3.80;99.90
44166;DHT22;30476;53.468;9.826;2022-12-08T05:27:36;3.80;99.90
44166;DHT22;30476;53.468;9.826;2022-12-08T05:30:02;3.80;99.90
44166;DHT22;30476;53.468;9.826;2022-12-08T05:32:28;3.80;99.90
44166;DHT22;30476;53.468;9.826;2022-12-08T05:34:54;3.80;99.90
44166;DHT22;30476;53.468;9.826;2022-12-08T05:37:19;3.80;99.90
44166;DHT22;30476;53.468;9.826;2022-12-08T05:39:45;3.80;99.90
44166;DHT22;30476;53.468;9.826;2022-12-08T05:42:11;3.80;99.90
44166;DHT22;30476;53.468;9.826;2022-12-08T05:44:37;3.80;99.90
44166;DHT22;30476;53.468;9.826;2022-12-08T05:47:03;3.80;99.90
44166;DHT22;30476;53.468;9.826;2022-12-08T05:49:28;3.80;99.90
44166;DHT22;30476;53.468;9.826;2022-12-08T05:51:54;3.80;99.90
44166;DHT22;30476;53.468;9.826;2022-12-08T05:54:20;3.80;99.90
44166;DHT22;30476;53.468;9.826;2022-12-08T05:56:46;3.80;99.90
44166;DHT22;30476;53.468;9.826;2022-12-08T05:59:11;3.80;99.90
44166;DHT22;30476;53.468;9.826;2022-12-08T06:01:37;3.80;99.90
44166;DHT22;30476;53.468;9.826;2022-12-08T06:04:04;3.80;99.90
44166;DHT22;30476;53.468;9.826;2022-12-08T06:06:30;3.80;99.90
44166;DHT22;30476;53.468;9.826;2022-12-08T06:08:58;3.80;99.90
44166;DHT22;30476;53.468;9.826;2022-12-08T06:11:27;3.80;99.90
44166;DHT22;30476;53.468;9.826;2022-12-08T06:13:54;3.80;99.90
44166;DHT22;30476;53.468;9.826;2022-12-08T06:16:22;3.80;99.90
44166;DHT22;30476;53.468;9.826;2022-12-08T06:18:48;3.80;99.90
44166;DHT22;30476;53.468;9.826;2022-12-08T06:21:14;3.80;99.90
44166;DHT22;30476;53.468;9.826;2022-12-08T06:23:41;3.80;99.90
44166;DHT22;30476;53.468;9.826;2022-12-08T06:26:12;3.80;99.90
44166;DHT22;30476;53.468;9.826;2022-12-08T06:28:39;3.90;99.90
44166;DHT22;30476;53.468;9.826;2022-12-08T06:31:08;3.90;99.90
44166;DHT22;30476;53.468;9.826;2022-12-08T06:33:34;3.90;99.90
44166;DHT22;30476;53.468;9.826;2022-12-08T06:36:00;3.90;99.90
44166;DHT22;30476;53.468;9.826;2022-12-08T06:38:26;3.90;99.90
44166;DHT22;30476;53.468;9.826;2022-12-08T06:40:56;3.90;99.90
44166;DHT22;30476;53.468;9.826;2022-12-08T06:43:22;3.90;99.90
44166;DHT22;30476;53.468;9.826;2022-12-08T06:45:48;3.90;99.90
44166;DHT22;30476;53.468;9.826;2022-12-08T06:48:14;3.90;99.90
44166;DHT22;30476;53.468;9.826;2022-12-08T06:50:40;3.90;99.90
44166;DHT22;30476;53.468;9.826;2022-12-08T06:53:06;3.90;99.90
44166;DHT22;30476;53.468;9.826;2022-12-08T06:55:32;4.00;99.90
44166;DHT22;30476;53.468;9.826;2022-12-08T06:57:57;3.90;99.90
44166;DHT22;30476;53.468;9.826;2022-12-08T07:00:23;3.90;99.90
44166;DHT22;30476;53.468;9.826;2022-12-08T07:02:49;3.90;99.90
44166;DHT22;30476;53.468;9.826;2022-12-08T07:05:15;3.90;99.90
44166;DHT22;30476;53.468;9.826;2022-12-08T07:07:41;3.90;99.90
44166;DHT22;30476;53.468;9.826;2022-12-08T07:10:07;3.90;99.90
44166;DHT22;30476;53.468;9.826;2022-12-08T07:12:33;3.90;99.90
44166;DHT22;30476;53.468;9.826;2022-12-08T07:14:59;3.90;99.90
44166;DHT22;30476;53.468;9.826;2022-12-08T07:17:24;3.90;99.90
44166;DHT22;30476;53.468;9.826;2022-12-08T07:19:50;3.90;99.90
44166;DHT22;30476;53.468;9.826;2022-12-08T07:22:16;3.90;99.90
44166;DHT22;30476;53.468;9.826;2022-12-08T07:24:42;3.90;99.90
44166;DHT22;30476;53.468;9.826;2022-12-08T07:27:07;3.90;99.90
44166;DHT22;30476;53.468;9.826;2022-12-08T07:29:33;3.90;99.90
44166;DHT22;30476;53.468;9.826;2022-12-08T07:31:59;3.90;99.90
44166;DHT22;30476;53.468;9.826;2022-12-08T07:34:25;3.90;99.90
44166;DHT22;30476;53.468;9.826;2022-12-08T07:36:50;3.90;99.90
44166;DHT22;30476;53.468;9.826;2022-12-08T07:39:16;3.80;99.90
44166;DHT22;30476;53.468;9.826;2022-12-08T07:41:42;3.90;99.90
44166;DHT22;30476;53.468;9.826;2022-12-08T07:44:11;3.90;99.90
44166;DHT22;30476;53.468;9.826;2022-12-08T07:46:37;3.90;99.90
44166;DHT22;30476;53.468;9.826;2022-12-08T07:49:02;3.90;99.90
44166;DHT22;30476;53.468;9.826;2022-12-08T07:51:28;3.90;99.90
44166;DHT22;30476;53.468;9.826;2022-12-08T07:53:54;3.90;99.90
44166;DHT22;30476;53.468;9.826;2022-12-08T07:56:20;3.90;99.90
44166;DHT22;30476;53.468;9.826;2022-12-08T07:58:46;3.90;99.90
44166;DHT22;30476;53.468;9.826;2022-12-08T08:03:44;3.90;99.90
44166;DHT22;30476;53.468;9.826;2022-12-08T08:06:10;4.00;99.90
44166;DHT22;30476;53.468;9.826;2022-12-08T08:08:37;3.90;99.90
44166;DHT22;30476;53.468;9.826;2022-12-08T08:11:07;3.90;99.90
44166;DHT22;30476;53.468;9.826;2022-12-08T08:13:34;3.90;99.90
44166;DHT22;30476;53.468;9.826;2022-12-08T08:16:07;4.00;99.90
44166;DHT22;30476;53.468;9.826;2022-12-08T08:18:34;4.00;99.90
44166;DHT22;30476;53.468;9.826;2022-12-08T08:21:00;4.00;99.90
44166;DHT22;30476;53.468;9.826;2022-12-08T08:23:27;4.00;99.90
44166;DHT22;30476;53.468;9.826;2022-12-08T08:25:52;3.90;99.90
44166;DHT22;30476;53.468;9.826;2022-12-08T08:28:18;4.00;99.90
44166;DHT22;30476;53.468;9.826;2022-12-08T08:30:45;4.00;99.90
44166;DHT22;30476;53.468;9.826;2022-12-08T08:33:12;4.00;99.90
44166;DHT22;30476;53.468;9.826;2022-12-08T08:35:37;4.00;99.90
44166;DHT22;30476;53.468;9.826;2022-12-08T08:38:04;4.00;99.90
44166;DHT22;30476;53.468;9.826;2022-12-08T08:40:30;4.00;99.90
44166;DHT22;30476;53.468;9.826;2022-12-08T08:42:59;4.00;99.90
44166;DHT22;30476;53.468;9.826;2022-12-08T08:45:25;4.00;99.90
44166;DHT22;30476;53.468;9.826;2022-12-08T08:47:50;4.00;99.90
44166;DHT22;30476;53.468;9.826;2022-12-08T08:50:16;4.00;99.90
44166;DHT22;30476;53.468;9.826;2022-12-08T08:52:42;4.10;99.90
44166;DHT22;30476;53.468;9.826;2022-12-08T08:55:08;4.10;99.90
44166;DHT22;30476;53.468;9.826;2022-12-08T08:57:34;4.10;99.90
44166;DHT22;30476;53.468;9.826;2022-12-08T08:59:59;4.10;99.90
44166;DHT22;30476;53.468;9.826;2022-12-08T09:02:25;4.10;99.90
44166;DHT22;30476;53.468;9.826;2022-12-08T09:04:51;4.10;99.90
44166;DHT22;30476;53.468;9.826;2022-12-08T09:07:17;4.10;99.90
44166;DHT22;30476;53.468;9.826;2022-12-08T09:09:43;4.10;99.90
44166;DHT22;30476;53.468;9.826;2022-12-08T09:12:09;4.10;99.90
44166;DHT22;30476;53.468;9.826;2022-12-08T09:14:35;4.10;99.90
44166;DHT22;30476;53.468;9.826;2022-12-08T09:17:01;4.10;99.90
44166;DHT22;30476;53.468;9.826;2022-12-08T09:19:27;4.10;99.90
44166;DHT22;30476;53.468;9.826;2022-12-08T09:21:53;4.10;99.90
44166;DHT22;30476;53.468;9.826;2022-12-08T09:24:19;4.10;99.90
44166;DHT22;30476;53.468;9.826;2022-12-08T09:26:45;4.20;99.90
44166;DHT22;30476;53.468;9.826;2022-12-08T09:29:11;4.20;99.90
44166;DHT22;30476;53.468;9.826;2022-12-08T09:31:39;4.20;99.90
44166;DHT22;30476;53.468;9.826;2022-12-08T09:34:05;4.20;99.90
44166;DHT22;30476;53.468;9.826;2022-12-08T09:36:31;4.30;99.90
44166;DHT22;30476;53.468;9.826;2022-12-08T09:38:57;4.30;99.90
44166;DHT22;30476;53.468;9.826;2022-12-08T09:41:30;4.30;99.90
44166;DHT22;30476;53.468;9.826;2022-12-08T09:46:42;4.40;99.90
44166;DHT22;30476;53.468;9.826;2022-12-08T09:49:14;4.40;99.90
44166;DHT22;30476;53.468;9.826;2022-12-08T09:51:41;4.40;99.90
44166;DHT22;30476;53.468;9.826;2022-12-08T09:54:20;4.40;99.90
44166;DHT22;30476;53.468;9.826;2022-12-08T09:56:52;4.40;99.90
44166;DHT22;30476;53.468;9.826;2022-12-08T09:59:31;4.40;99.90
44166;DHT22;30476;53.468;9.826;2022-12-08T10:01:59;4.50;99.90
44166;DHT22;30476;53.468;9.826;2022-12-08T10:10:04;4.50;99.90
44166;DHT22;30476;53.468;9.826;2022-12-08T10:12:55;4.60;99.90
44166;DHT22;30476;53.468;9.826;2022-12-08T10:15:40;4.60;99.90
44166;DHT22;30476;53.468;9.826;2022-12-08T10:18:15;4.60;99.90
44166;DHT22;30476;53.468;9.826;2022-12-08T10:20:45;4.70;99.90
44166;DHT22;30476;53.468;9.826;2022-12-08T10:25:46;4.70;99.90
44166;DHT22;30476;53.468;9.826;2022-12-08T10:28:13;4.80;99.90
44166;DHT22;30476;53.468;9.826;2022-12-08T10:30:39;4.80;99.90
44166;DHT22;30476;53.468;9.826;2022-12-08T10:33:15;4.80;99.90
44166;DHT22;30476;53.468;9.826;2022-12-08T10:35:53;4.80;99.90
44166;DHT22;30476;53.468;9.826;2022-12-08T10:38:25;4.90;99.90
44166;DHT22;30476;53.468;9.826;2022-12-08T10:40:53;4.90;99.90
44166;DHT22;30476;53.468;9.826;2022-12-08T10:43:24;4.90;99.90
44166;DHT22;30476;53.468;9.826;2022-12-08T10:45:51;4.90;99.90
44166;DHT22;30476;53.468;9.826;2022-12-08T10:48:25;4.90;99.90
44166;DHT22;30476;53.468;9.826;2022-12-08T10:50:53;4.90;99.90
44166;DHT22;30476;53.468;9.826;2022-12-08T10:53:23;4.90;99.90
44166;DHT22;30476;53.468;9.826;2022-12-08T10:55:52;4.90;99.90
44166;DHT22;30476;53.468;9.826;2022-12-08T11:01:20;4.90;99.90
44166;DHT22;30476;53.468;9.826;2022-12-08T11:06:30;5.10;99.90
44166;DHT22;30476;53.468;9.826;2022-12-08T11:08:58;5.10;99.90
44166;DHT22;30476;53.468;9.826;2022-12-08T11:11:57;5.20;99.90
44166;DHT22;30476;53.468;9.826;2022-12-08T11:14:29;5.20;99.90
44166;DHT22;30476;53.468;9.826;2022-12-08T11:17:03;5.30;99.90
44166;DHT22;30476;53.468;9.826;2022-12-08T11:19:30;5.30;99.90
44166;DHT22;30476;53.468;9.826;2022-12-08T11:21:56;5.30;99.90
44166;DHT22;30476;53.468;9.826;2022-12-08T11:24:27;5.30;99.90
44166;DHT22;30476;53.468;9.826;2022-12-08T11:27:02;5.30;99.90
44166;DHT22;30476;53.468;9.826;2022-12-08T11:29:31;5.30;99.90
44166;DHT22;30476;53.468;9.826;2022-12-08T11:32:03;5.40;99.90
44166;DHT22;30476;53.468;9.826;2022-12-08T11:35:01;5.40;99.90
44166;DHT22;30476;53.468;9.826;2022-12-08T11:37:32;5.40;99.90
44166;DHT22;30476;53.468;9.826;2022-12-08T11:40:05;5.40;99.90
44166;DHT22;30476;53.468;9.826;2022-12-08T11:42:37;5.40;99.90
44166;DHT22;30476;53.468;9.826;2022-12-08T11:45:15;5.40;99.90
44166;DHT22;30476;53.468;9.826;2022-12-08T11:47:46;5.40;99.90
44166;DHT22;30476;53.468;9.826;2022-12-08T11:50:28;5.40;99.90
44166;DHT22;30476;53.468;9.826;2022-12-08T11:52:56;5.40;99.90
44166;DHT22;30476;53.468;9.826;2022-12-08T11:55:36;5.40;99.90
44166;DHT22;30476;53.468;9.826;2022-12-08T11:58:35;5.40;99.90
44166;DHT22;30476;53.468;9.826;2022-12-08T12:01:02;5.30;99.90
44166;DHT22;30476;53.468;9.826;2022-12-08T12:03:30;5.30;99.90
44166;DHT22;30476;53.468;9.826;2022-12-08T12:09:01;5.30;99.90
44166;DHT22;30476;53.468;9.826;2022-12-08T12:17:44;5.30;99.90
44166;DHT22;30476;53.468;9.826;2022-12-08T12:20:32;5.30;99.90
44166;DHT22;30476;53.468;9.826;2022-12-08T12:23:06;5.20;99.90
44166;DHT22;30476;53.468;9.826;2022-12-08T12:25:36;5.30;99.90
44166;DHT22;30476;53.468;9.826;2022-12-08T12:28:05;5.30;99.90
44166;DHT22;30476;53.468;9.826;2022-12-08T12:30:56;5.20;99.90
44166;DHT22;30476;53.468;9.826;2022-12-08T12:33:24;5.20;99.90
44166;DHT22;30476;53.468;9.826;2022-12-08T12:35:51;5.30;99.90
44166;DHT22;30476;53.468;9.826;2022-12-08T12:38:26;5.20;99.90
44166;DHT22;30476;53.468;9.826;2022-12-08T12:41:14;5.20;99.90
44166;DHT22;30476;53.468;9.826;2022-12-08T12:46:51;5.30;99.90
44166;DHT22;30476;53.468;9.826;2022-12-08T12:54:42;5.30;99.90
44166;DHT22;30476;53.468;9.826;2022-12-08T13:02:30;5.30;99.90
44166;DHT22;30476;53.468;9.826;2022-12-08T13:10:22;5.30;99.90
44166;DHT22;30476;53.468;9.826;2022-12-08T13:15:35;5.30;99.90
44166;DHT22;30476;53.468;9.826;2022-12-08T13:18:02;5.30;99.90
44166;DHT22;30476;53.468;9.826;2022-12-08T13:20:28;5.30;99.90
44166;DHT22;30476;53.468;9.826;2022-12-08T13:23:10;5.30;99.90
44166;DHT22;30476;53.468;9.826;2022-12-08T13:25:44;5.30;99.90
44166;DHT22;30476;53.468;9.826;2022-12-08T13:28:22;5.20;99.90
44166;DHT22;30476;53.468;9.826;2022-12-08T13:30:53;5.30;99.90
44166;DHT22;30476;53.468;9.826;2022-12-08T13:33:27;5.20;99.90
44166;DHT22;30476;53.468;9.826;2022-12-08T13:38:34;5.20;99.90
44166;DHT22;30476;53.468;9.826;2022-12-08T13:41:08;5.30;99.90
44166;DHT22;30476;53.468;9.826;2022-12-08T13:43:54;5.20;99.90
44166;DHT22;30476;53.468;9.826;2022-12-08T13:46:35;5.20;99.90
44166;DHT22;30476;53.468;9.826;2022-12-08T13:49:03;5.30;99.90
44166;DHT22;30476;53.468;9.826;2022-12-08T13:51:42;5.20;99.90
44166;DHT22;30476;53.468;9.826;2022-12-08T13:54:17;5.30;99.90
44166;DHT22;30476;53.468;9.826;2022-12-08T13:56:46;5.20;99.90
44166;DHT22;30476;53.468;9.826;2022-12-08T14:01:46;5.30;99.90
44166;DHT22;30476;53.468;9.826;2022-12-08T14:04:24;5.30;99.90
44166;DHT22;30476;53.468;9.826;2022-12-08T14:07:00;5.30;99.90
44166;DHT22;30476;53.468;9.826;2022-12-08T14:09:31;5.30;99.90
44166;DHT22;30476;53.468;9.826;2022-12-08T14:12:02;5.30;99.90
44166;DHT22;30476;53.468;9.826;2022-12-08T14:14:30;5.20;99.90
44166;DHT22;30476;53.468;9.826;2022-12-08T14:17:01;5.20;99.90
44166;DHT22;30476;53.468;9.826;2022-12-08T14:19:31;5.20;99.90
44166;DHT22;30476;53.468;9.826;2022-12-08T14:24:29;5.10;99.90
44166;DHT22;30476;53.468;9.826;2022-12-08T14:27:23;5.10;99.90
44166;DHT22;30476;53.468;9.826;2022-12-08T14:29:57;5.10;99.90
44166;DHT22;30476;53.468;9.826;2022-12-08T14:37:26;5.10;99.90
44166;DHT22;30476;53.468;9.826;2022-12-08T14:39:56;5.10;99.90
44166;DHT22;30476;53.468;9.826;2022-12-08T14:42:25;5.10;99.90
44166;DHT22;30476;53.468;9.826;2022-12-08T14:45:05;5.10;99.90
44166;DHT22;30476;53.468;9.826;2022-12-08T14:47:34;5.10;99.90
44166;DHT22;30476;53.468;9.826;2022-12-08T14:50:01;5.00;99.90
44166;DHT22;30476;53.468;9.826;2022-12-08T14:52:28;5.00;99.90
44166;DHT22;30476;53.468;9.826;2022-12-08T14:54:54;5.00;99.90
44166;DHT22;30476;53.468;9.826;2022-12-08T14:57:21;5.00;99.90
44166;DHT22;30476;53.468;9.826;2022-12-08T14:59:48;5.00;99.90
44166;DHT22;30476;53.468;9.826;2022-12-08T15:04:44;4.90;99.90
44166;DHT22;30476;53.468;9.826;2022-12-08T15:07:18;4.90;99.90
44166;DHT22;30476;53.468;9.826;2022-12-08T15:09:47;4.90;99.90
44166;DHT22;30476;53.468;9.826;2022-12-08T15:22:50;4.70;99.90
44166;DHT22;30476;53.468;9.826;2022-12-08T15:25:16;4.70;99.90
44166;DHT22;30476;53.468;9.826;2022-12-08T15:27:42;4.60;99.90
44166;DHT22;30476;53.468;9.826;2022-12-08T15:30:13;4.60;99.90
44166;DHT22;30476;53.468;9.826;2022-12-08T15:32:38;4.50;99.90
44166;DHT22;30476;53.468;9.826;2022-12-08T15:35:05;4.50;99.90
44166;DHT22;30476;53.468;9.826;2022-12-08T15:37:30;4.50;99.90
44166;DHT22;30476;53.468;9.826;2022-12-08T15:39:56;4.40;99.90
44166;DHT22;30476;53.468;9.826;2022-12-08T15:42:22;4.40;99.90
44166;DHT22;30476;53.468;9.826;2022-12-08T15:44:48;4.40;99.90
44166;DHT22;30476;53.468;9.826;2022-12-08T15:47:19;4.30;99.90
44166;DHT22;30476;53.468;9.826;2022-12-08T15:49:47;4.30;99.90
44166;DHT22;30476;53.468;9.826;2022-12-08T15:52:16;4.30;99.90
44166;DHT22;30476;53.468;9.826;2022-12-08T15:54:42;4.30;99.90
44166;DHT22;30476;53.468;9.826;2022-12-08T15:57:25;4.30;99.90
44166;DHT22;30476;53.468;9.826;2022-12-08T15:59:51;4.20;99.90
44166;DHT22;30476;53.468;9.826;2022-12-08T16:02:18;4.30;99.90
44166;DHT22;30476;53.468;9.826;2022-12-08T16:04:44;4.20;99.90
44166;DHT22;30476;53.468;9.826;2022-12-08T16:07:26;4.20;99.90
44166;DHT22;30476;53.468;9.826;2022-12-08T16:09:53;4.20;99.90
44166;DHT22;30476;53.468;9.826;2022-12-08T16:12:25;4.20;99.90
44166;DHT22;30476;53.468;9.826;2022-12-08T16:15:11;4.10;99.90
44166;DHT22;30476;53.468;9.826;2022-12-08T16:17:38;4.10;99.90
44166;DHT22;30476;53.468;9.826;2022-12-08T16:20:07;4.00;99.90
44166;DHT22;30476;53.468;9.826;2022-12-08T16:22:33;4.00;99.90
44166;DHT22;30476;53.468;9.826;2022-12-08T16:24:59;4.00;99.90
44166;DHT22;30476;53.468;9.826;2022-12-08T16:27:29;4.00;99.90
44166;DHT22;30476;53.468;9.826;2022-12-08T16:29:57;4.00;99.90
44166;DHT22;30476;53.468;9.826;2022-12-08T16:32:23;4.00;99.90
44166;DHT22;30476;53.468;9.826;2022-12-08T16:34:50;4.00;99.90
44166;DHT22;30476;53.468;9.826;2022-12-08T16:37:21;3.90;99.90
44166;DHT22;30476;53.468;9.826;2022-12-08T16:39:48;3.90;99.90
44166;DHT22;30476;53.468;9.826;2022-12-08T16:42:25;3.90;99.90
44166;DHT22;30476;53.468;9.826;2022-12-08T16:47:51;3.80;99.90
44166;DHT22;30476;53.468;9.826;2022-12-08T16:50:20;3.80;99.90
44166;DHT22;30476;53.468;9.826;2022-12-08T16:52:47;3.80;99.90
44166;DHT22;30476;53.468;9.826;2022-12-08T16:55:16;3.80;99.90
44166;DHT22;30476;53.468;9.826;2022-12-08T16:57:43;3.80;99.90
44166;DHT22;30476;53.468;9.826;2022-12-08T17:00:16;3.70;99.90
44166;DHT22;30476;53.468;9.826;2022-12-08T17:02:43;3.80;99.90
44166;DHT22;30476;53.468;9.826;2022-12-08T17:05:13;3.70;99.90
44166;DHT22;30476;53.468;9.826;2022-12-08T17:07:41;3.80;99.90
44166;DHT22;30476;53.468;9.826;2022-12-08T17:10:08;3.80;99.90
44166;DHT22;30476;53.468;9.826;2022-12-08T17:12:35;3.80;99.90
44166;DHT22;30476;53.468;9.826;2022-12-08T17:15:06;3.80;99.90
44166;DHT22;30476;53.468;9.826;2022-12-08T17:17:32;3.80;99.90
44166;DHT22;30476;53.468;9.826;2022-12-08T17:20:03;3.80;99.90
44166;DHT22;30476;53.468;9.826;2022-12-08T17:22:30;3.70;99.90
44166;DHT22;30476;53.468;9.826;2022-12-08T17:24:56;3.70;99.90
44166;DHT22;30476;53.468;9.826;2022-12-08T17:27:22;3.70;99.90
44166;DHT22;30476;53.468;9.826;2022-12-08T17:29:48;3.70;99.90
44166;DHT22;30476;53.468;9.826;2022-12-08T17:32:14;3.70;99.90
44166;DHT22;30476;53.468;9.826;2022-12-08T17:34:40;3.70;99.90
44166;DHT22;30476;53.468;9.826;2022-12-08T17:37:06;3.70;99.90
44166;DHT22;30476;53.468;9.826;2022-12-08T17:39:32;3.60;99.90
44166;DHT22;30476;53.468;9.826;2022-12-08T17:41:58;3.70;99.90
44166;DHT22;30476;53.468;9.826;2022-12-08T17:44:24;3.70;99.90
44166;DHT22;30476;53.468;9.826;2022-12-08T17:46:49;3.60;99.90